sensor_id;sensor_type;location;lat;lon;timestamp;pressure;altitude;pressure_sealevel;temperature;humidity
59987;BME280;46181;51.498;5.392;2023-01-30T00:02:07;101793.4;;;9.64;60.78711
59987;BME280;46181;51.498;5.392;2023-01-30T00:06:37;101777.8;;;9.7;60.81738
59987;BME280;46181;51.498;5.392;2023-01-30T00:11:11;101761.6;;;9.73;60.93359
59987;BME280;46181;51.498;5.392;2023-01-30T00:15:37;101764.1;;;9.82;60.92383
59987;BME280;46181;51.498;5.392;2023-01-30T00:20:08;101748.2;;;9.85;60.90625
59987;BME280;46181;51.498;5.392;2023-01-30T00:24:37;101747.8;;;9.88;60.95605
59987;BME280;46181;51.498;5.392;2023-01-30T00:29:07;101741;;;9.89;61.12402
59987;BME280;46181;51.498;5.392;2023-01-30T00:33:38;101762.5;;;9.93;61.13086
59987;BME280;46181;51.498;5.392;2023-01-30T00:38:08;101754.6;;;9.95;61.10059
59987;BME280;46181;51.498;5.392;2023-01-30T00:42:37;101743.9;;;10.02;61.08691
59987;BME280;46181;51.498;5.392;2023-01-30T00:47:07;101733.6;;;10.06;61.06934
59987;BME280;46181;51.498;5.392;2023-01-30T00:51:37;101740.2;;;10.1;61.19922
59987;BME280;46181;51.498;5.392;2023-01-30T00:56:08;101741.4;;;10.14;61.20508
59987;BME280;46181;51.498;5.392;2023-01-30T01:00:37;101733.2;;;10.16;61.1748
59987;BME280;46181;51.498;5.392;2023-01-30T01:05:08;101726.3;;;10.17;61.1748
59987;BME280;46181;51.498;5.392;2023-01-30T01:09:37;101734.3;;;10.19;61.16699
59987;BME280;46181;51.498;5.392;2023-01-30T01:14:08;101728.6;;;10.19;61.30176
59987;BME280;46181;51.498;5.392;2023-01-30T01:18:37;101724.4;;;10.24;61.22949
59987;BME280;46181;51.498;5.392;2023-01-30T01:23:08;101719.9;;;10.27;61.2334
59987;BME280;46181;51.498;5.392;2023-01-30T01:27:37;101721.2;;;10.26;61.30078
59987;BME280;46181;51.498;5.392;2023-01-30T01:32:07;101711.3;;;10.29;61.34961
59987;BME280;46181;51.498;5.392;2023-01-30T01:36:37;101698.8;;;10.32;61.4209
59987;BME280;46181;51.498;5.392;2023-01-30T01:41:08;101698.9;;;10.35;61.46973
59987;BME280;46181;51.498;5.392;2023-01-30T01:45:37;101699.3;;;10.38;61.48633
59987;BME280;46181;51.498;5.392;2023-01-30T01:50:08;101682.6;;;10.42;61.50293
59987;BME280;46181;51.498;5.392;2023-01-30T01:54:41;101666.3;;;10.44;61.59473
59987;BME280;46181;51.498;5.392;2023-01-30T01:59:11;101656.9;;;10.49;61.64844
59987;BME280;46181;51.498;5.392;2023-01-30T02:03:41;101644.4;;;10.5;61.68262
59987;BME280;46181;51.498;5.392;2023-01-30T02:08:12;101642;;;10.54;61.5752
59987;BME280;46181;51.498;5.392;2023-01-30T02:12:38;101654.2;;;10.57;61.63672
59987;BME280;46181;51.498;5.392;2023-01-30T02:17:07;101642.8;;;10.61;61.67383
59987;BME280;46181;51.498;5.392;2023-01-30T02:30:59;101607.7;;;10.52;61.98828
59987;BME280;46181;51.498;5.392;2023-01-30T02:35:13;101606.8;;;10.55;62.09375
59987;BME280;46181;51.498;5.392;2023-01-30T02:39:43;101598.5;;;10.59;62.04395
59987;BME280;46181;51.498;5.392;2023-01-30T02:44:13;101610;;;10.63;62.03809
59987;BME280;46181;51.498;5.392;2023-01-30T02:48:42;101614.6;;;10.64;61.98438
59987;BME280;46181;51.498;5.392;2023-01-30T02:53:08;101603.9;;;10.62;62.04883
59987;BME280;46181;51.498;5.392;2023-01-30T02:57:37;101603.3;;;10.64;62.16309
59987;BME280;46181;51.498;5.392;2023-01-30T03:02:31;101609.1;;;10.52;62.5957
59987;BME280;46181;51.498;5.392;2023-01-30T03:06:50;101596.4;;;10.5;62.73926
59987;BME280;46181;51.498;5.392;2023-01-30T03:11:10;101592.9;;;10.56;62.78027
59987;BME280;46181;51.498;5.392;2023-01-30T03:15:43;101592;;;10.56;62.87109
59987;BME280;46181;51.498;5.392;2023-01-30T03:20:09;101574.9;;;10.59;62.85254
59987;BME280;46181;51.498;5.392;2023-01-30T03:24:38;101580.3;;;10.54;62.93555
59987;BME280;46181;51.498;5.392;2023-01-30T03:29:08;101577.9;;;10.46;63.10352
59987;BME280;46181;51.498;5.392;2023-01-30T03:33:37;101580.2;;;10.42;63.36816
59987;BME280;46181;51.498;5.392;2023-01-30T03:38:07;101571;;;10.39;63.57715
59987;BME280;46181;51.498;5.392;2023-01-30T03:42:38;101566;;;10.38;63.73242
59987;BME280;46181;51.498;5.392;2023-01-30T03:47:07;101557.8;;;10.39;63.94824
59987;BME280;46181;51.498;5.392;2023-01-30T03:51:37;101563.6;;;10.39;64.09473
59987;BME280;46181;51.498;5.392;2023-01-30T03:56:08;101564.3;;;10.37;64.15918
59987;BME280;46181;51.498;5.392;2023-01-30T04:00:37;101557.1;;;10.38;64.28223
59987;BME280;46181;51.498;5.392;2023-01-30T04:05:08;101561.6;;;10.37;64.31641
59987;BME280;46181;51.498;5.392;2023-01-30T04:09:37;101558.9;;;10.4;64.44336
59987;BME280;46181;51.498;5.392;2023-01-30T04:14:07;101568.3;;;10.42;64.62598
59987;BME280;46181;51.498;5.392;2023-01-30T04:18:38;101559;;;10.45;64.78711
59987;BME280;46181;51.498;5.392;2023-01-30T04:23:07;101559.9;;;10.46;65.04883
59987;BME280;46181;51.498;5.392;2023-01-30T04:27:38;101549;;;10.5;65.17773
59987;BME280;46181;51.498;5.392;2023-01-30T04:32:07;101551;;;10.54;65.2627
59987;BME280;46181;51.498;5.392;2023-01-30T04:36:38;101550.2;;;10.58;65.44629
59987;BME280;46181;51.498;5.392;2023-01-30T04:41:08;101545.6;;;10.61;65.54199
59987;BME280;46181;51.498;5.392;2023-01-30T04:45:37;101550.6;;;10.65;65.60449
59987;BME280;46181;51.498;5.392;2023-01-30T04:50:09;101547.4;;;10.68;65.63086
59987;BME280;46181;51.498;5.392;2023-01-30T04:54:37;101547.5;;;10.71;65.74902
59987;BME280;46181;51.498;5.392;2023-01-30T04:59:07;101554.6;;;10.77;65.82422
59987;BME280;46181;51.498;5.392;2023-01-30T05:03:37;101554;;;10.82;66.03516
59987;BME280;46181;51.498;5.392;2023-01-30T05:08:08;101549.1;;;10.85;66.11816
59987;BME280;46181;51.498;5.392;2023-01-30T05:12:38;101553.7;;;10.89;66.19043
59987;BME280;46181;51.498;5.392;2023-01-30T05:17:08;101567.7;;;10.95;66.25684
59987;BME280;46181;51.498;5.392;2023-01-30T05:21:38;101563.5;;;10.96;66.41504
59987;BME280;46181;51.498;5.392;2023-01-30T05:26:08;101548.8;;;11.02;66.47949
59987;BME280;46181;51.498;5.392;2023-01-30T05:30:38;101551;;;11.04;66.5625
59987;BME280;46181;51.498;5.392;2023-01-30T05:35:08;101547.7;;;11.09;66.52441
59987;BME280;46181;51.498;5.392;2023-01-30T05:39:38;101559.4;;;11.17;66.32324
59987;BME280;46181;51.498;5.392;2023-01-30T05:44:08;101555.8;;;11.19;66.2373
59987;BME280;46181;51.498;5.392;2023-01-30T05:48:38;101552.7;;;11.24;66.16504
59987;BME280;46181;51.498;5.392;2023-01-30T05:53:07;101554.3;;;11.27;65.9668
59987;BME280;46181;51.498;5.392;2023-01-30T05:57:38;101555.1;;;11.29;65.79102
59987;BME280;46181;51.498;5.392;2023-01-30T06:02:08;101557.4;;;11.27;65.77637
59987;BME280;46181;51.498;5.392;2023-01-30T06:06:38;101584.5;;;11.31;65.66016
59987;BME280;46181;51.498;5.392;2023-01-30T06:11:13;101577.5;;;11.29;65.67773
59987;BME280;46181;51.498;5.392;2023-01-30T06:15:38;101574.4;;;11.33;65.5498
59987;BME280;46181;51.498;5.392;2023-01-30T06:20:08;101578.5;;;11.33;65.41406
59987;BME280;46181;51.498;5.392;2023-01-30T06:24:38;101584;;;11.35;65.06738
59987;BME280;46181;51.498;5.392;2023-01-30T06:29:08;101574.7;;;11.28;64.82031
59987;BME280;46181;51.498;5.392;2023-01-30T06:33:38;101598.8;;;11.23;64.78027
59987;BME280;46181;51.498;5.392;2023-01-30T06:38:08;101619.3;;;11.11;64.60547
59987;BME280;46181;51.498;5.392;2023-01-30T06:42:38;101612.8;;;10.93;64.5332
59987;BME280;46181;51.498;5.392;2023-01-30T06:47:08;101595.4;;;10.77;64.71289
59987;BME280;46181;51.498;5.392;2023-01-30T06:51:38;101625.1;;;10.66;64.63867
59987;BME280;46181;51.498;5.392;2023-01-30T06:56:09;101632.4;;;10.55;64.59961
59987;BME280;46181;51.498;5.392;2023-01-30T07:00:39;101609.3;;;10.44;64.42676
59987;BME280;46181;51.498;5.392;2023-01-30T07:05:08;101591.8;;;10.35;64.09863
59987;BME280;46181;51.498;5.392;2023-01-30T07:09:38;101596.6;;;10.29;63.93359
59987;BME280;46181;51.498;5.392;2023-01-30T07:14:08;101605.7;;;10.22;63.76563
59987;BME280;46181;51.498;5.392;2023-01-30T07:18:38;101619.7;;;10.2;63.69434
59987;BME280;46181;51.498;5.392;2023-01-30T07:23:08;101623.2;;;10.11;63.57031
59987;BME280;46181;51.498;5.392;2023-01-30T07:27:38;101627.7;;;10.04;63.38086
59987;BME280;46181;51.498;5.392;2023-01-30T07:32:11;101623.7;;;9.99;63.29395
59987;BME280;46181;51.498;5.392;2023-01-30T07:36:38;101645.7;;;9.92;63.20605
59987;BME280;46181;51.498;5.392;2023-01-30T07:41:09;101644.4;;;9.86;63.33203
59987;BME280;46181;51.498;5.392;2023-01-30T07:45:40;101653.1;;;9.84;63.28418
59987;BME280;46181;51.498;5.392;2023-01-30T07:50:09;101655.6;;;9.83;63.30566
59987;BME280;46181;51.498;5.392;2023-01-30T07:54:38;101653.8;;;9.81;63.3125
59987;BME280;46181;51.498;5.392;2023-01-30T07:59:08;101642.4;;;9.82;63.11328
59987;BME280;46181;51.498;5.392;2023-01-30T08:03:38;101658;;;9.84;62.8916
59987;BME280;46181;51.498;5.392;2023-01-30T08:08:08;101656.9;;;9.86;62.68066
59987;BME280;46181;51.498;5.392;2023-01-30T08:12:38;101663.1;;;9.89;62.58398
59987;BME280;46181;51.498;5.392;2023-01-30T08:17:08;101683.5;;;9.94;62.30957
59987;BME280;46181;51.498;5.392;2023-01-30T08:21:38;101678.4;;;10.01;61.92871
59987;BME280;46181;51.498;5.392;2023-01-30T08:26:08;101680.1;;;10.02;61.89453
59987;BME280;46181;51.498;5.392;2023-01-30T08:30:39;101691.8;;;10.08;61.74609
59987;BME280;46181;51.498;5.392;2023-01-30T08:35:08;101693;;;10.16;61.3418
59987;BME280;46181;51.498;5.392;2023-01-30T08:39:38;101686.9;;;10.2;61.21191
59987;BME280;46181;51.498;5.392;2023-01-30T08:44:08;101688.9;;;10.3;60.93359
59987;BME280;46181;51.498;5.392;2023-01-30T08:48:38;101690.8;;;10.36;60.42578
59987;BME280;46181;51.498;5.392;2023-01-30T08:53:10;101707.6;;;10.42;60.16406
59987;BME280;46181;51.498;5.392;2023-01-30T08:57:38;101703.1;;;10.54;59.8877
59987;BME280;46181;51.498;5.392;2023-01-30T09:02:08;101710.4;;;10.61;59.33496
59987;BME280;46181;51.498;5.392;2023-01-30T09:06:38;101719.8;;;10.68;59.1084
59987;BME280;46181;51.498;5.392;2023-01-30T09:11:12;101731.7;;;10.74;58.69922
59987;BME280;46181;51.498;5.392;2023-01-30T09:15:39;101732.7;;;10.86;58.40137
59987;BME280;46181;51.498;5.392;2023-01-30T09:20:09;101731.7;;;10.95;58.16504
59987;BME280;46181;51.498;5.392;2023-01-30T09:24:38;101744.9;;;11.04;57.90723
59987;BME280;46181;51.498;5.392;2023-01-30T09:29:08;101751.8;;;11.11;57.91504
59987;BME280;46181;51.498;5.392;2023-01-30T09:33:38;101747.3;;;11.19;57.55469
59987;BME280;46181;51.498;5.392;2023-01-30T09:38:08;101747.5;;;11.27;57.20508
59987;BME280;46181;51.498;5.392;2023-01-30T09:47:14;101765.9;;;11.56;56.74609
59987;BME280;46181;51.498;5.392;2023-01-30T09:51:44;101764.2;;;11.81;56.07813
59987;BME280;46181;51.498;5.392;2023-01-30T09:56:08;101771.2;;;11.91;55.46875
59987;BME280;46181;51.498;5.392;2023-01-30T10:00:41;101765;;;11.91;55.2998
59987;BME280;46181;51.498;5.392;2023-01-30T10:05:08;101771.8;;;11.99;54.64258
59987;BME280;46181;51.498;5.392;2023-01-30T10:09:44;101771.5;;;11.96;54.39063
59987;BME280;46181;51.498;5.392;2023-01-30T10:18:57;101781.5;;;11.97;54.1875
59987;BME280;46181;51.498;5.392;2023-01-30T10:23:19;101801.6;;;12.13;53.54102
59987;BME280;46181;51.498;5.392;2023-01-30T10:27:40;101792.3;;;12.2;53.25391
59987;BME280;46181;51.498;5.392;2023-01-30T10:32:11;101798.1;;;12.29;53.00586
59987;BME280;46181;51.498;5.392;2023-01-30T10:36:43;101800.3;;;12.31;52.57813
59987;BME280;46181;51.498;5.392;2023-01-30T10:41:12;101802.2;;;12.34;52.43555
59987;BME280;46181;51.498;5.392;2023-01-30T10:45:43;101806.1;;;12.4;52.29395
59987;BME280;46181;51.498;5.392;2023-01-30T10:50:16;101790.2;;;12.38;51.82813
59987;BME280;46181;51.498;5.392;2023-01-30T10:54:43;101813.5;;;12.34;51.78906
59987;BME280;46181;51.498;5.392;2023-01-30T10:59:24;101820.6;;;12.28;51.86035
59987;BME280;46181;51.498;5.392;2023-01-30T11:03:43;101814;;;12.23;51.5498
59987;BME280;46181;51.498;5.392;2023-01-30T11:08:09;101814.8;;;12.24;51.3125
59987;BME280;46181;51.498;5.392;2023-01-30T11:12:38;101820.9;;;12.26;51.14551
59987;BME280;46181;51.498;5.392;2023-01-30T11:17:13;101818.5;;;12.25;50.84961
59987;BME280;46181;51.498;5.392;2023-01-30T11:21:39;101823.2;;;12.25;51.01953
59987;BME280;46181;51.498;5.392;2023-01-30T11:26:11;101826.9;;;12.3;50.42578
59987;BME280;46181;51.498;5.392;2023-01-30T11:30:41;101805;;;12.37;50.45605
59987;BME280;46181;51.498;5.392;2023-01-30T11:35:26;101819.7;;;12.36;50.2959
59987;BME280;46181;51.498;5.392;2023-01-30T11:39:39;101822;;;12.53;49.91895
59987;BME280;46181;51.498;5.392;2023-01-30T11:44:13;101814.1;;;12.57;49.53809
59987;BME280;46181;51.498;5.392;2023-01-30T11:48:40;101824.5;;;12.67;49.69727
59987;BME280;46181;51.498;5.392;2023-01-30T11:53:15;101831.7;;;12.66;49.35547
59987;BME280;46181;51.498;5.392;2023-01-30T11:57:41;101824.6;;;12.69;49.54004
59987;BME280;46181;51.498;5.392;2023-01-30T12:02:19;101842.5;;;12.61;49.46387
59987;BME280;46181;51.498;5.392;2023-01-30T12:06:42;101833.8;;;12.7;49.65527
59987;BME280;46181;51.498;5.392;2023-01-30T12:11:21;101837.1;;;12.75;49.36621
59987;BME280;46181;51.498;5.392;2023-01-30T12:15:39;101833.2;;;12.76;49.29883
59987;BME280;46181;51.498;5.392;2023-01-30T12:20:16;101837.7;;;12.83;49.43164
59987;BME280;46181;51.498;5.392;2023-01-30T12:24:42;101824;;;12.9;49.01855
59987;BME280;46181;51.498;5.392;2023-01-30T12:29:14;101824.1;;;13;48.79297
59987;BME280;46181;51.498;5.392;2023-01-30T12:33:39;101814;;;13.1;48.49707
59987;BME280;46181;51.498;5.392;2023-01-30T12:38:13;101828.7;;;13.09;48.29199
59987;BME280;46181;51.498;5.392;2023-01-30T12:42:55;101828.1;;;12.99;48.72266
59987;BME280;46181;51.498;5.392;2023-01-30T12:47:18;101836.4;;;13.09;48.26855
59987;BME280;46181;51.498;5.392;2023-01-30T12:51:53;101851.8;;;13.16;48.18652
59987;BME280;46181;51.498;5.392;2023-01-30T12:56:31;101849.1;;;13.1;47.92969
59987;BME280;46181;51.498;5.392;2023-01-30T13:00:56;101858.1;;;12.97;48.18652
59987;BME280;46181;51.498;5.392;2023-01-30T13:05:19;101869.6;;;12.91;48.2041
59987;BME280;46181;51.498;5.392;2023-01-30T13:09:56;101870.9;;;12.97;48.18652
59987;BME280;46181;51.498;5.392;2023-01-30T13:14:13;101876.9;;;13.11;47.37402
59987;BME280;46181;51.498;5.392;2023-01-30T13:18:41;101875.7;;;13.1;47.30371
59987;BME280;46181;51.498;5.392;2023-01-30T13:23:10;101882;;;13.14;47.18359
59987;BME280;46181;51.498;5.392;2023-01-30T13:27:43;101881.7;;;13.1;46.76953
59987;BME280;46181;51.498;5.392;2023-01-30T13:32:10;101881.9;;;13.1;47.21289
59987;BME280;46181;51.498;5.392;2023-01-30T13:36:44;101887.6;;;13.06;47.20898
59987;BME280;46181;51.498;5.392;2023-01-30T13:41:09;101883.7;;;12.99;47.08789
59987;BME280;46181;51.498;5.392;2023-01-30T13:45:40;101894.3;;;13.03;46.91113
59987;BME280;46181;51.498;5.392;2023-01-30T13:50:22;101901.2;;;13.01;47.02246
59987;BME280;46181;51.498;5.392;2023-01-30T13:54:49;101905;;;13.16;46.99219
59987;BME280;46181;51.498;5.392;2023-01-30T13:59:13;101913.7;;;13.27;46.50391
59987;BME280;46181;51.498;5.392;2023-01-30T14:03:39;101925.3;;;13.28;46.45898
59987;BME280;46181;51.498;5.392;2023-01-30T14:08:14;101932;;;13.26;46.25391
59987;BME280;46181;51.498;5.392;2023-01-30T14:12:42;101944.3;;;13.2;45.75781
59987;BME280;46181;51.498;5.392;2023-01-30T14:17:16;101940.3;;;13.13;46.08105
59987;BME280;46181;51.498;5.392;2023-01-30T14:21:38;101941;;;13.16;45.93652
59987;BME280;46181;51.498;5.392;2023-01-30T14:26:08;101950.3;;;13.06;46.25586
59987;BME280;46181;51.498;5.392;2023-01-30T14:30:53;101969.8;;;12.89;46.45313
59987;BME280;46181;51.498;5.392;2023-01-30T14:35:22;101974.8;;;12.85;46.62988
59987;BME280;46181;51.498;5.392;2023-01-30T14:39:57;101989.9;;;12.81;46.875
59987;BME280;46181;51.498;5.392;2023-01-30T14:44:09;101993.4;;;12.87;46.49707
59987;BME280;46181;51.498;5.392;2023-01-30T14:48:44;102005.3;;;12.83;46.71875
59987;BME280;46181;51.498;5.392;2023-01-30T14:53:13;102020.6;;;12.84;46.67383
59987;BME280;46181;51.498;5.392;2023-01-30T14:57:51;102021;;;12.82;46.87695
59987;BME280;46181;51.498;5.392;2023-01-30T15:02:26;102024.1;;;12.72;46.63965
59987;BME280;46181;51.498;5.392;2023-01-30T15:06:42;102039.3;;;12.79;46.68066
59987;BME280;46181;51.498;5.392;2023-01-30T15:11:14;102055.3;;;12.73;46.99219
59987;BME280;46181;51.498;5.392;2023-01-30T15:15:43;102057.8;;;12.75;47.08398
59987;BME280;46181;51.498;5.392;2023-01-30T15:20:23;102066.5;;;12.58;47.32715
59987;BME280;46181;51.498;5.392;2023-01-30T15:25:03;102072.7;;;12.44;47.30078
59987;BME280;46181;51.498;5.392;2023-01-30T15:33:46;102081.2;;;12.49;47.57813
59987;BME280;46181;51.498;5.392;2023-01-30T15:38:16;102087.5;;;12.48;47.74805
59987;BME280;46181;51.498;5.392;2023-01-30T15:42:39;102094.4;;;12.5;47.48926
59987;BME280;46181;51.498;5.392;2023-01-30T15:47:20;102096.6;;;12.47;47.60938
59987;BME280;46181;51.498;5.392;2023-01-30T15:51:39;102096.7;;;12.47;47.71191
59987;BME280;46181;51.498;5.392;2023-01-30T15:56:10;102108.6;;;12.44;47.52832
59987;BME280;46181;51.498;5.392;2023-01-30T16:00:43;102119.1;;;12.44;47.56152
59987;BME280;46181;51.498;5.392;2023-01-30T16:05:22;102129.2;;;12.29;47.9082
59987;BME280;46181;51.498;5.392;2023-01-30T16:09:38;102138.9;;;12.37;47.56641
59987;BME280;46181;51.498;5.392;2023-01-30T16:14:09;102149.2;;;12.36;47.68848
59987;BME280;46181;51.498;5.392;2023-01-30T16:18:41;102151.8;;;12.31;47.84277
59987;BME280;46181;51.498;5.392;2023-01-30T16:23:14;102156;;;12.26;47.79199
59987;BME280;46181;51.498;5.392;2023-01-30T16:27:40;102163.4;;;12.25;48.10742
59987;BME280;46181;51.498;5.392;2023-01-30T16:32:13;102167.7;;;12.2;47.875
59987;BME280;46181;51.498;5.392;2023-01-30T16:36:46;102168;;;11.99;48.08984
59987;BME280;46181;51.498;5.392;2023-01-30T16:41:14;102184.2;;;11.9;48.41992
59987;BME280;46181;51.498;5.392;2023-01-30T16:46:44;102194.8;;;11.7;49.06641
59987;BME280;46181;51.498;5.392;2023-01-30T16:50:09;102194.5;;;11.84;48.74219
59987;BME280;46181;51.498;5.392;2023-01-30T16:54:39;102215.2;;;11.86;48.84668
59987;BME280;46181;51.498;5.392;2023-01-30T16:59:16;102216.9;;;11.78;48.84863
59987;BME280;46181;51.498;5.392;2023-01-30T17:03:40;102220.7;;;11.57;49.29004
59987;BME280;46181;51.498;5.392;2023-01-30T17:08:11;102232.2;;;11.38;49.62891
59987;BME280;46181;51.498;5.392;2023-01-30T17:12:50;102239.8;;;11.16;50.21582
59987;BME280;46181;51.498;5.392;2023-01-30T17:17:15;102240.2;;;11.15;50.5293
59987;BME280;46181;51.498;5.392;2023-01-30T17:21:41;102252;;;11.25;50.59863
59987;BME280;46181;51.498;5.392;2023-01-30T17:26:08;102261;;;11.38;50.59082
59987;BME280;46181;51.498;5.392;2023-01-30T17:30:38;102265.4;;;11.5;50.52539
59987;BME280;46181;51.498;5.392;2023-01-30T17:35:09;102261.3;;;11.58;50.51172
59987;BME280;46181;51.498;5.392;2023-01-30T17:39:38;102264.4;;;11.62;50.48242
59987;BME280;46181;51.498;5.392;2023-01-30T17:44:08;102258;;;11.65;50.64453
59987;BME280;46181;51.498;5.392;2023-01-30T17:48:38;102276.6;;;11.67;50.63477
59987;BME280;46181;51.498;5.392;2023-01-30T17:53:09;102278.7;;;11.6;50.79688
59987;BME280;46181;51.498;5.392;2023-01-30T17:57:38;102290.6;;;11.61;50.86523
59987;BME280;46181;51.498;5.392;2023-01-30T18:02:08;102299.2;;;11.58;50.99805
59987;BME280;46181;51.498;5.392;2023-01-30T18:06:38;102312.1;;;11.54;51.16309
59987;BME280;46181;51.498;5.392;2023-01-30T18:11:08;102313.3;;;11.59;51.38477
59987;BME280;46181;51.498;5.392;2023-01-30T18:15:38;102313.6;;;11.66;51.51563
59987;BME280;46181;51.498;5.392;2023-01-30T18:20:09;102322.4;;;11.63;51.5127
59987;BME280;46181;51.498;5.392;2023-01-30T18:24:38;102333.1;;;11.59;51.68945
59987;BME280;46181;51.498;5.392;2023-01-30T18:29:08;102334;;;11.55;51.82031
59987;BME280;46181;51.498;5.392;2023-01-30T18:33:39;102336.2;;;11.42;52.08691
59987;BME280;46181;51.498;5.392;2023-01-30T18:38:08;102334.9;;;11.33;52.35938
59987;BME280;46181;51.498;5.392;2023-01-30T18:42:38;102338.8;;;11.2;52.69336
59987;BME280;46181;51.498;5.392;2023-01-30T18:47:08;102353.2;;;11.2;52.94043
59987;BME280;46181;51.498;5.392;2023-01-30T18:51:39;102351.8;;;11.21;52.99902
59987;BME280;46181;51.498;5.392;2023-01-30T18:56:10;102356.8;;;11.14;53.13672
59987;BME280;46181;51.498;5.392;2023-01-30T19:00:38;102357.8;;;11.04;53.26074
59987;BME280;46181;51.498;5.392;2023-01-30T19:05:08;102354.9;;;10.96;53.36328
59987;BME280;46181;51.498;5.392;2023-01-30T19:09:38;102362.3;;;10.76;53.51855
59987;BME280;46181;51.498;5.392;2023-01-30T19:14:09;102370.3;;;10.58;53.79102
59987;BME280;46181;51.498;5.392;2023-01-30T19:18:39;102376.8;;;10.37;54.06934
59987;BME280;46181;51.498;5.392;2023-01-30T19:23:08;102374.4;;;10.21;54.3418
59987;BME280;46181;51.498;5.392;2023-01-30T19:27:38;102374.8;;;10.07;54.72852
59987;BME280;46181;51.498;5.392;2023-01-30T19:32:08;102378.8;;;9.95;54.93945
59987;BME280;46181;51.498;5.392;2023-01-30T19:36:38;102376.2;;;9.84;55.17188
59987;BME280;46181;51.498;5.392;2023-01-30T19:41:08;102382.2;;;9.76;55.36523
59987;BME280;46181;51.498;5.392;2023-01-30T19:45:38;102384.6;;;9.68;55.55762
59987;BME280;46181;51.498;5.392;2023-01-30T19:50:09;102400.4;;;9.61;55.68359
59987;BME280;46181;51.498;5.392;2023-01-30T19:54:38;102407;;;9.55;55.82129
59987;BME280;46181;51.498;5.392;2023-01-30T19:59:09;102393.9;;;9.57;56.0498
59987;BME280;46181;51.498;5.392;2023-01-30T20:03:39;102395.3;;;9.66;56.2168
59987;BME280;46181;51.498;5.392;2023-01-30T20:08:08;102397.1;;;9.78;56.12109
59987;BME280;46181;51.498;5.392;2023-01-30T20:12:38;102392.9;;;9.81;56.08008
59987;BME280;46181;51.498;5.392;2023-01-30T20:17:08;102392.4;;;9.8;56.05762
59987;BME280;46181;51.498;5.392;2023-01-30T20:21:39;102394.2;;;9.73;56.02441
59987;BME280;46181;51.498;5.392;2023-01-30T20:26:11;102393.8;;;9.62;56.12305
59987;BME280;46181;51.498;5.392;2023-01-30T20:30:38;102398.1;;;9.53;56.11133
59987;BME280;46181;51.498;5.392;2023-01-30T20:35:09;102403.5;;;9.42;56.19824
59987;BME280;46181;51.498;5.392;2023-01-30T20:39:38;102411.1;;;9.33;56.29883
59987;BME280;46181;51.498;5.392;2023-01-30T20:44:09;102407.8;;;9.25;56.44531
59987;BME280;46181;51.498;5.392;2023-01-30T20:48:38;102410.7;;;9.2;56.52832
59987;BME280;46181;51.498;5.392;2023-01-30T20:53:08;102414.9;;;9.11;56.57422
59987;BME280;46181;51.498;5.392;2023-01-30T20:57:40;102415.4;;;9.02;56.62793
59987;BME280;46181;51.498;5.392;2023-01-30T21:02:08;102422.3;;;8.93;56.77344
59987;BME280;46181;51.498;5.392;2023-01-30T21:06:39;102422;;;8.83;56.75098
59987;BME280;46181;51.498;5.392;2023-01-30T21:11:15;102423;;;8.65;57.00586
59987;BME280;46181;51.498;5.392;2023-01-30T21:15:38;102430.6;;;8.62;57.07129
59987;BME280;46181;51.498;5.392;2023-01-30T21:20:09;102441.3;;;8.55;57.19531
59987;BME280;46181;51.498;5.392;2023-01-30T21:24:38;102442.5;;;8.44;57.2832
59987;BME280;46181;51.498;5.392;2023-01-30T21:29:09;102453.5;;;8.34;57.39258
59987;BME280;46181;51.498;5.392;2023-01-30T21:33:38;102458;;;8.28;57.51855
59987;BME280;46181;51.498;5.392;2023-01-30T21:38:08;102455;;;8.23;57.62402
59987;BME280;46181;51.498;5.392;2023-01-30T21:42:38;102456.8;;;8.18;57.70605
59987;BME280;46181;51.498;5.392;2023-01-30T21:47:08;102452.4;;;8.12;57.81055
59987;BME280;46181;51.498;5.392;2023-01-30T21:51:38;102457.7;;;8.05;57.86816
59987;BME280;46181;51.498;5.392;2023-01-30T21:56:08;102451.9;;;8;58.00684
59987;BME280;46181;51.498;5.392;2023-01-30T22:00:38;102452.4;;;7.95;58.12402
59987;BME280;46181;51.498;5.392;2023-01-30T22:05:09;102455.3;;;7.91;58.08398
59987;BME280;46181;51.498;5.392;2023-01-30T22:09:38;102452;;;7.82;58.22949
59987;BME280;46181;51.498;5.392;2023-01-30T22:14:08;102446.5;;;7.78;58.36914
59987;BME280;46181;51.498;5.392;2023-01-30T22:18:38;102457.8;;;7.76;58.44531
59987;BME280;46181;51.498;5.392;2023-01-30T22:23:08;102456.4;;;7.71;58.57227
59987;BME280;46181;51.498;5.392;2023-01-30T22:27:38;102456.3;;;7.69;58.65918
59987;BME280;46181;51.498;5.392;2023-01-30T22:32:08;102461.8;;;7.67;58.75684
59987;BME280;46181;51.498;5.392;2023-01-30T22:36:39;102458.7;;;7.62;58.85156
59987;BME280;46181;51.498;5.392;2023-01-30T22:41:13;102458.5;;;7.57;58.96777
59987;BME280;46181;51.498;5.392;2023-01-30T22:45:38;102460.5;;;7.57;58.98926
59987;BME280;46181;51.498;5.392;2023-01-30T22:50:09;102461.4;;;7.53;59.0293
59987;BME280;46181;51.498;5.392;2023-01-30T22:54:38;102451.2;;;7.51;59.07031
59987;BME280;46181;51.498;5.392;2023-01-30T22:59:09;102451.7;;;7.46;59.10742
59987;BME280;46181;51.498;5.392;2023-01-30T23:03:38;102448.7;;;7.42;59.19238
59987;BME280;46181;51.498;5.392;2023-01-30T23:08:08;102441.6;;;7.38;59.26563
59987;BME280;46181;51.498;5.392;2023-01-30T23:12:38;102446.4;;;7.35;59.32715
59987;BME280;46181;51.498;5.392;2023-01-30T23:17:09;102437.6;;;7.35;59.37109
59987;BME280;46181;51.498;5.392;2023-01-30T23:21:40;102433.8;;;7.31;59.4668
59987;BME280;46181;51.498;5.392;2023-01-30T23:26:09;102422.8;;;7.27;59.45215
59987;BME280;46181;51.498;5.392;2023-01-30T23:30:39;102418.5;;;7.26;59.53809